createdAt,value
2023-03-30T00:01:01.181Z,4.03
2023-03-30T00:03:28.897Z,4.60
2023-03-30T00:05:59.011Z,3.95
2023-03-30T00:08:29.363Z,4.65
2023-03-30T00:11:04.446Z,4.15
2023-03-30T00:13:32.536Z,4.03
2023-03-30T00:15:59.670Z,4.47
2023-03-30T00:18:26.753Z,4.43
2023-03-30T00:20:53.709Z,4.22
2023-03-30T00:23:20.805Z,4.05
2023-03-30T00:25:48.178Z,3.60
2023-03-30T00:28:15.005Z,4.07
2023-03-30T00:30:42.143Z,4.10
2023-03-30T00:33:09.113Z,3.50
2023-03-30T00:35:36.549Z,4.18
2023-03-30T00:38:03.609Z,3.60
2023-03-30T00:40:32.801Z,3.83
2023-03-30T00:43:04.524Z,4.12
2023-03-30T00:45:32.811Z,4.95
2023-03-30T00:48:12.044Z,4.10
2023-03-30T00:50:43.856Z,4.87
2023-03-30T00:53:43.874Z,6.35
2023-03-30T00:56:13.009Z,7.43
2023-03-30T00:58:40.771Z,8.27
2023-03-30T01:01:10.588Z,6.60
2023-03-30T01:03:46.313Z,5.72
2023-03-30T01:06:14.675Z,4.85
2023-03-30T01:08:42.935Z,3.97
2023-03-30T01:11:09.849Z,4.10
2023-03-30T01:13:38.952Z,3.83
2023-03-30T01:16:06.295Z,4.03
2023-03-30T01:18:45.012Z,4.12
2023-03-30T01:21:33.069Z,3.83
2023-03-30T01:24:37.329Z,4.30
2023-03-30T01:27:32.590Z,4.00
2023-03-30T01:30:14.641Z,3.80
2023-03-30T01:33:05.782Z,4.12
2023-03-30T01:35:46.932Z,4.78
2023-03-30T01:38:53.939Z,4.45
2023-03-30T01:41:37.682Z,4.12
2023-03-30T01:44:37.627Z,4.60
2023-03-30T01:47:11.621Z,5.68
2023-03-30T01:50:00.339Z,4.90
2023-03-30T01:52:30.545Z,4.93
2023-03-30T01:55:15.795Z,4.55
2023-03-30T01:57:48.245Z,4.65
2023-03-30T02:00:19.191Z,4.40
2023-03-30T02:02:49.572Z,4.45
2023-03-30T02:05:18.317Z,4.40
2023-03-30T02:07:51.009Z,4.18
2023-03-30T02:10:19.052Z,4.25
2023-03-30T02:12:47.293Z,3.87
2023-03-30T02:15:15.536Z,4.00
2023-03-30T02:17:43.691Z,4.55
2023-03-30T02:20:12.409Z,4.45
2023-03-30T02:22:39.700Z,5.00
2023-03-30T02:25:06.906Z,5.30
2023-03-30T02:27:35.099Z,5.07
2023-03-30T02:30:01.989Z,4.72
2023-03-30T02:32:33.779Z,6.03
2023-03-30T02:35:27.565Z,4.75
2023-03-30T02:38:18.921Z,4.60
2023-03-30T02:40:59.341Z,4.20
2023-03-30T02:43:51.160Z,4.35
2023-03-30T02:46:20.751Z,4.53
2023-03-30T02:49:00.125Z,4.40
2023-03-30T02:51:43.695Z,4.50
2023-03-30T02:54:20.880Z,4.85
2023-03-30T02:56:56.053Z,4.68
2023-03-30T02:59:28.572Z,4.32
2023-03-30T03:01:59.657Z,4.22
2023-03-30T03:04:28.677Z,4.93
2023-03-30T03:06:56.171Z,4.37
2023-03-30T03:09:26.347Z,4.50
2023-03-30T03:11:53.333Z,5.00
2023-03-30T03:14:21.234Z,4.50
2023-03-30T03:16:48.335Z,4.90
2023-03-30T03:19:16.216Z,5.53
2023-03-30T03:21:43.121Z,5.40
2023-03-30T03:24:10.125Z,5.57
2023-03-30T03:26:36.974Z,5.82
2023-03-30T03:29:03.849Z,5.93
2023-03-30T03:31:31.029Z,5.43
2023-03-30T03:33:57.895Z,5.43
2023-03-30T03:36:24.737Z,6.07
2023-03-30T03:41:19.385Z,8.10
2023-03-30T03:43:47.034Z,7.30
2023-03-30T03:46:14.256Z,6.28
2023-03-30T03:48:41.228Z,5.80
2023-03-30T03:51:09.458Z,6.10
2023-03-30T03:53:36.445Z,5.93
2023-03-30T03:56:03.834Z,6.70
2023-03-30T03:58:30.822Z,5.68
2023-03-30T04:00:59.868Z,5.03
2023-03-30T04:03:27.276Z,4.55
2023-03-30T04:05:54.311Z,5.37
2023-03-30T04:08:21.374Z,5.60
2023-03-30T04:10:48.463Z,4.60
2023-03-30T04:13:15.502Z,4.20
2023-03-30T04:15:42.384Z,4.62
2023-03-30T04:18:09.358Z,4.82
2023-03-30T04:20:36.292Z,3.97
2023-03-30T04:23:03.194Z,4.40
2023-03-30T04:25:30.129Z,4.75
2023-03-30T04:27:57.565Z,5.00
2023-03-30T04:30:24.491Z,5.70
2023-03-30T04:33:03.045Z,5.47
2023-03-30T04:35:34.131Z,6.05
2023-03-30T04:38:02.405Z,5.55
2023-03-30T04:40:29.724Z,5.40
2023-03-30T04:43:02.409Z,7.05
2023-03-30T04:45:30.904Z,7.03
2023-03-30T04:47:57.868Z,6.10
2023-03-30T04:50:24.948Z,6.87
2023-03-30T04:52:51.796Z,6.35
2023-03-30T04:55:18.637Z,7.07
2023-03-30T04:57:45.506Z,9.60
2023-03-30T05:00:13.816Z,8.55
2023-03-30T05:02:41.265Z,8.05
2023-03-30T05:05:08.600Z,6.37
2023-03-30T05:07:35.576Z,5.93
2023-03-30T05:10:02.525Z,6.28
2023-03-30T05:12:29.444Z,5.45
2023-03-30T05:14:56.269Z,5.20
2023-03-30T05:17:23.267Z,5.82
2023-03-30T05:19:50.196Z,10.18
2023-03-30T05:22:17.168Z,11.70
2023-03-30T05:24:44.055Z,11.15
2023-03-30T05:27:10.906Z,12.90
2023-03-30T05:29:37.740Z,10.38
2023-03-30T05:32:04.677Z,10.40
2023-03-30T05:34:31.546Z,10.15
2023-03-30T05:36:58.456Z,8.90
2023-03-30T05:39:25.400Z,10.40
2023-03-30T05:41:52.591Z,7.95
2023-03-30T05:44:21.929Z,7.00
2023-03-30T05:46:49.565Z,5.47
2023-03-30T05:49:16.555Z,5.80
2023-03-30T05:51:43.471Z,4.65
2023-03-30T05:54:12.776Z,4.70
2023-03-30T05:56:40.871Z,4.72
2023-03-30T05:59:08.669Z,4.95
2023-03-30T06:01:35.516Z,5.35
2023-03-30T06:04:02.507Z,5.22
2023-03-30T06:06:29.603Z,5.22
2023-03-30T06:08:56.514Z,5.80
2023-03-30T06:11:23.443Z,5.85
2023-03-30T06:13:50.450Z,6.70
2023-03-30T06:16:17.384Z,7.00
2023-03-30T06:18:44.244Z,6.78
2023-03-30T06:21:11.898Z,7.05
2023-03-30T06:23:41.010Z,6.78
2023-03-30T06:26:07.997Z,6.35
2023-03-30T06:28:34.989Z,6.12
2023-03-30T06:31:03.366Z,6.15
2023-03-30T06:33:30.548Z,5.87
2023-03-30T06:35:58.156Z,5.20
2023-03-30T06:38:25.134Z,6.07
2023-03-30T06:40:52.233Z,6.18
2023-03-30T06:43:21.982Z,6.07
2023-03-30T06:45:53.199Z,6.05
2023-03-30T06:48:24.043Z,6.15
2023-03-30T06:50:52.281Z,6.37
2023-03-30T06:53:20.330Z,6.62
2023-03-30T06:55:55.036Z,6.15
2023-03-30T06:58:22.203Z,6.22
2023-03-30T07:00:49.606Z,5.70
2023-03-30T07:03:19.151Z,5.65
2023-03-30T07:05:49.618Z,6.00
2023-03-30T07:08:17.574Z,6.50
2023-03-30T07:10:44.542Z,7.15
2023-03-30T07:13:11.472Z,6.75
2023-03-30T07:15:38.323Z,6.68
2023-03-30T07:18:05.360Z,6.15
2023-03-30T07:20:32.242Z,6.20
2023-03-30T07:22:59.092Z,5.97
2023-03-30T07:25:25.968Z,5.93
2023-03-30T07:27:52.986Z,6.18
2023-03-30T07:30:22.136Z,6.45
2023-03-30T07:32:54.356Z,8.10
2023-03-30T07:35:22.848Z,5.93
2023-03-30T07:37:51.010Z,5.87
2023-03-30T07:40:18.831Z,6.43
2023-03-30T07:42:45.937Z,6.72
2023-03-30T07:45:15.614Z,7.07
2023-03-30T07:47:43.330Z,6.82
2023-03-30T07:50:10.444Z,6.57
2023-03-30T07:52:38.333Z,7.00
2023-03-30T07:55:05.693Z,6.45
2023-03-30T07:57:32.671Z,6.68
2023-03-30T07:59:59.652Z,6.37
2023-03-30T08:02:27.417Z,6.68
2023-03-30T08:04:54.603Z,6.12
2023-03-30T08:07:21.583Z,6.37
2023-03-30T08:09:48.417Z,6.87
2023-03-30T08:12:15.359Z,6.07
2023-03-30T08:14:42.320Z,6.30
2023-03-30T08:17:09.231Z,6.50
2023-03-30T08:19:36.193Z,6.65
2023-03-30T08:22:03.344Z,6.35
2023-03-30T08:24:30.448Z,6.62
2023-03-30T08:26:57.340Z,5.68
2023-03-30T08:29:24.442Z,5.62
2023-03-30T08:31:52.314Z,5.85
2023-03-30T08:34:19.434Z,5.55
2023-03-30T08:36:46.338Z,5.12
2023-03-30T08:39:13.228Z,5.12
2023-03-30T08:41:43.987Z,6.03
2023-03-30T08:44:23.006Z,5.87
2023-03-30T08:46:50.796Z,5.20
2023-03-30T08:49:20.011Z,6.00
2023-03-30T08:51:49.730Z,5.70
2023-03-30T08:54:22.103Z,5.55
2023-03-30T08:57:03.718Z,5.78
2023-03-30T08:59:33.205Z,5.75
2023-03-30T09:02:24.975Z,5.57
2023-03-30T09:04:58.154Z,5.68
2023-03-30T09:07:38.801Z,5.03
2023-03-30T09:10:12.710Z,5.45
2023-03-30T09:12:53.180Z,5.72
2023-03-30T09:15:37.038Z,5.90
2023-03-30T09:18:14.076Z,5.97
2023-03-30T09:20:41.612Z,5.10
2023-03-30T09:23:14.352Z,5.07
2023-03-30T09:26:13.404Z,5.53
2023-03-30T09:28:58.676Z,4.47
2023-03-30T09:31:34.322Z,5.07
2023-03-30T09:34:07.158Z,5.35
2023-03-30T09:37:18.962Z,4.70
2023-03-30T09:39:46.680Z,5.03
2023-03-30T09:42:38.246Z,5.18
2023-03-30T09:45:15.742Z,4.37
2023-03-30T09:47:43.075Z,4.57
2023-03-30T09:50:13.329Z,4.37
2023-03-30T09:52:41.746Z,4.32
2023-03-30T09:55:29.041Z,4.50
2023-03-30T09:58:21.156Z,4.43
2023-03-30T10:01:04.014Z,4.25
2023-03-30T10:03:31.079Z,4.10
2023-03-30T10:06:07.767Z,4.78
2023-03-30T10:08:42.244Z,4.22
2023-03-30T10:11:09.608Z,4.03
2023-03-30T10:13:41.844Z,4.15
2023-03-30T10:16:35.099Z,3.75
2023-03-30T10:19:05.687Z,4.28
2023-03-30T10:21:37.459Z,3.72
2023-03-30T10:24:14.801Z,3.85
2023-03-30T10:29:21.992Z,4.00
2023-03-30T10:31:52.164Z,3.83
2023-03-30T10:34:21.945Z,3.83
2023-03-30T10:36:53.957Z,3.87
2023-03-30T10:39:29.943Z,3.90
2023-03-30T10:41:59.696Z,3.67
2023-03-30T10:44:36.254Z,3.83
2023-03-30T10:47:09.116Z,3.65
2023-03-30T10:50:03.987Z,3.50
2023-03-30T10:52:48.810Z,3.58
2023-03-30T10:55:32.656Z,2.80
2023-03-30T10:58:37.533Z,3.08
2023-03-30T11:02:21.231Z,3.05
2023-03-30T11:05:04.363Z,3.40
2023-03-30T11:07:55.027Z,2.85
2023-03-30T11:10:27.532Z,3.70
2023-03-30T11:12:59.147Z,3.70
2023-03-30T11:15:29.895Z,3.50
2023-03-30T11:18:07.469Z,3.72
2023-03-30T11:20:40.048Z,3.80
2023-03-30T11:23:14.343Z,3.80
2023-03-30T11:25:47.944Z,3.12
2023-03-30T11:28:36.619Z,3.50
2023-03-30T11:31:12.132Z,3.58
2023-03-30T11:33:59.056Z,3.10
2023-03-30T11:36:36.448Z,3.40
2023-03-30T11:39:07.796Z,3.78
2023-03-30T11:41:46.196Z,3.62
2023-03-30T11:44:13.233Z,3.25
2023-03-30T11:46:41.509Z,3.30
2023-03-30T11:49:17.935Z,2.97
2023-03-30T11:51:57.364Z,3.10
2023-03-30T11:54:52.694Z,3.37
2023-03-30T11:57:34.896Z,2.60
2023-03-30T12:00:23.569Z,3.08
2023-03-30T12:03:09.320Z,2.80
2023-03-30T12:05:40.238Z,2.70
2023-03-30T12:08:22.996Z,3.05
2023-03-30T12:10:56.831Z,2.80
2023-03-30T12:13:26.106Z,3.20
2023-03-30T12:15:59.655Z,3.12
2023-03-30T12:18:40.442Z,3.20
2023-03-30T12:21:33.514Z,2.83
2023-03-30T12:24:26.298Z,2.40
2023-03-30T12:27:04.678Z,2.80
2023-03-30T12:30:02.531Z,3.00
2023-03-30T12:32:31.287Z,2.65
2023-03-30T12:34:58.757Z,2.70
2023-03-30T12:37:35.569Z,2.90
2023-03-30T12:40:20.798Z,2.80
2023-03-30T12:43:24.183Z,3.17
2023-03-30T12:46:03.130Z,2.92
2023-03-30T12:48:51.590Z,2.80
2023-03-30T12:52:10.863Z,2.70
2023-03-30T12:54:57.914Z,3.00
2023-03-30T12:57:57.368Z,2.83
2023-03-30T13:00:44.855Z,2.75
2023-03-30T13:03:33.951Z,2.87
2023-03-30T13:06:03.174Z,3.65
2023-03-30T13:08:37.989Z,3.20
2023-03-30T13:11:19.341Z,3.25
2023-03-30T13:13:47.828Z,3.83
2023-03-30T13:16:15.146Z,2.95
2023-03-30T13:18:55.910Z,3.78
2023-03-30T13:21:25.255Z,3.00
2023-03-30T13:24:01.288Z,3.20
2023-03-30T13:26:35.163Z,3.12
2023-03-30T13:29:11.668Z,3.05
2023-03-30T13:31:56.060Z,3.12
2023-03-30T13:34:43.526Z,2.95
2023-03-30T13:37:36.394Z,3.45
2023-03-30T13:40:24.333Z,3.20
2023-03-30T13:43:07.033Z,3.30
2023-03-30T13:45:43.712Z,2.92
2023-03-30T13:48:49.297Z,2.83
2023-03-30T13:51:20.045Z,3.53
2023-03-30T13:54:00.401Z,3.50
2023-03-30T13:56:31.042Z,3.00
2023-03-30T13:59:04.365Z,3.10
2023-03-30T14:01:31.431Z,3.20
2023-03-30T14:04:00.977Z,3.55
2023-03-30T14:06:34.565Z,3.10
2023-03-30T14:09:05.652Z,3.05
2023-03-30T14:11:35.099Z,2.72
2023-03-30T14:14:03.534Z,3.15
2023-03-30T14:16:37.095Z,2.90
2023-03-30T14:19:22.321Z,3.45
2023-03-30T14:21:49.651Z,3.12
2023-03-30T14:24:31.193Z,3.10
2023-03-30T14:27:22.556Z,2.60
2023-03-30T14:29:51.971Z,2.87
2023-03-30T14:32:23.362Z,3.05
2023-03-30T14:34:51.941Z,3.00
2023-03-30T14:37:21.138Z,2.72
2023-03-30T14:39:54.063Z,3.40
2023-03-30T14:42:23.052Z,3.22
2023-03-30T14:44:52.692Z,2.97
2023-03-30T14:47:22.750Z,2.92
2023-03-30T14:49:52.280Z,3.00
2023-03-30T14:52:21.867Z,2.80
2023-03-30T14:54:58.172Z,3.15
2023-03-30T14:57:34.881Z,2.75
2023-03-30T15:00:12.362Z,2.53
2023-03-30T15:02:41.771Z,2.90
2023-03-30T15:05:09.342Z,2.60
2023-03-30T15:07:36.540Z,2.87
2023-03-30T15:10:04.491Z,2.80
2023-03-30T15:12:36.966Z,2.80
2023-03-30T15:15:06.789Z,2.72
2023-03-30T15:17:34.436Z,2.90
2023-03-30T15:20:02.812Z,2.70
2023-03-30T15:22:34.191Z,2.90
2023-03-30T15:25:03.827Z,3.00
2023-03-30T15:27:30.952Z,2.95
2023-03-30T15:30:01.177Z,3.58
2023-03-30T15:32:36.401Z,3.22
2023-03-30T15:35:14.999Z,4.00
2023-03-30T15:37:57.445Z,3.40
2023-03-30T15:40:35.314Z,3.50
2023-03-30T15:43:16.005Z,3.60
2023-03-30T15:46:05.557Z,3.25
2023-03-30T15:48:43.350Z,3.50
2023-03-30T15:51:28.547Z,3.67
2023-03-30T15:54:01.863Z,4.15
2023-03-30T15:56:35.851Z,3.97
2023-03-30T15:59:03.015Z,4.00
2023-03-30T16:01:43.323Z,3.40
2023-03-30T16:04:14.210Z,4.10
2023-03-30T16:06:43.125Z,4.00
2023-03-30T16:09:11.197Z,3.97
2023-03-30T16:11:38.325Z,3.87
2023-03-30T16:14:07.307Z,3.87
2023-03-30T16:16:34.886Z,3.87
2023-03-30T16:19:01.850Z,3.87
2023-03-30T16:21:28.784Z,3.85
2023-03-30T16:23:55.655Z,3.83
2023-03-30T16:26:22.543Z,4.00
2023-03-30T16:28:53.362Z,4.00
2023-03-30T16:31:22.329Z,3.92
2023-03-30T16:33:49.527Z,3.90
2023-03-30T16:36:18.283Z,3.92
2023-03-30T16:38:45.816Z,3.95
2023-03-30T16:41:23.202Z,3.80
2023-03-30T16:43:50.348Z,3.40
2023-03-30T16:46:19.095Z,3.60
2023-03-30T16:48:46.695Z,3.40
2023-03-30T16:51:15.657Z,3.37
2023-03-30T16:53:42.659Z,3.12
2023-03-30T16:56:17.774Z,3.30
2023-03-30T16:58:45.435Z,3.80
2023-03-30T17:01:14.108Z,3.65
2023-03-30T17:03:41.300Z,3.75
2023-03-30T17:06:08.623Z,3.20
2023-03-30T17:08:35.709Z,2.87
2023-03-30T17:11:07.898Z,3.70
2023-03-30T17:13:35.094Z,3.90
2023-03-30T17:16:03.059Z,3.53
2023-03-30T17:18:30.201Z,3.65
2023-03-30T17:20:59.073Z,3.75
2023-03-30T17:23:28.314Z,4.15
2023-03-30T17:25:56.470Z,3.72
2023-03-30T17:28:33.114Z,3.72
2023-03-30T17:31:02.467Z,3.40
2023-03-30T17:33:30.776Z,3.75
2023-03-30T17:36:04.280Z,3.47
2023-03-30T17:38:31.227Z,3.42
2023-03-30T17:40:58.124Z,3.58
2023-03-30T17:43:25.148Z,3.85
2023-03-30T17:45:52.051Z,4.32
2023-03-30T17:48:20.519Z,3.70
2023-03-30T17:50:50.074Z,4.50
2023-03-30T17:53:18.470Z,3.67
2023-03-30T17:55:46.727Z,3.10
2023-03-30T17:58:25.614Z,2.80
2023-03-30T18:00:53.380Z,3.10
2023-03-30T18:03:22.212Z,3.10
2023-03-30T18:05:50.287Z,3.80
2023-03-30T18:08:21.440Z,3.95
2023-03-30T18:10:53.515Z,4.03
2023-03-30T18:13:22.546Z,6.25
2023-03-30T18:15:51.965Z,3.60
2023-03-30T18:18:25.041Z,4.62
2023-03-30T18:20:55.807Z,3.90
2023-03-30T18:23:23.428Z,4.12
2023-03-30T18:25:50.442Z,4.60
2023-03-30T18:28:19.654Z,4.00
2023-03-30T18:30:46.669Z,4.80
2023-03-30T18:33:16.272Z,4.45
2023-03-30T18:35:43.796Z,4.65
2023-03-30T18:38:12.504Z,4.75
2023-03-30T18:40:44.058Z,4.70
2023-03-30T18:43:14.315Z,4.70
2023-03-30T18:45:43.319Z,4.37
2023-03-30T18:48:15.493Z,4.78
2023-03-30T18:50:43.272Z,5.05
2023-03-30T18:53:15.002Z,4.72
2023-03-30T18:55:44.094Z,4.25
2023-03-30T18:58:26.457Z,4.15
2023-03-30T19:00:57.451Z,4.32
2023-03-30T19:03:25.722Z,4.82
2023-03-30T19:05:52.923Z,4.80
2023-03-30T19:08:24.414Z,4.55
2023-03-30T19:10:53.521Z,4.70
2023-03-30T19:13:21.179Z,4.90
2023-03-30T19:15:49.302Z,4.35
2023-03-30T19:18:17.975Z,4.50
2023-03-30T19:20:45.256Z,4.87
2023-03-30T19:23:14.236Z,5.37
2023-03-30T19:25:41.383Z,4.62
2023-03-30T19:28:08.943Z,5.50
2023-03-30T19:30:39.319Z,5.20
2023-03-30T19:33:12.147Z,3.58
2023-03-30T19:35:43.576Z,2.95
2023-03-30T19:38:10.569Z,3.30
2023-03-30T19:40:38.928Z,3.03
2023-03-30T19:43:07.145Z,3.05
2023-03-30T19:45:34.259Z,3.30
2023-03-30T19:48:01.393Z,4.43
2023-03-30T19:50:30.135Z,3.10
2023-03-30T19:52:57.830Z,3.05
2023-03-30T19:55:24.824Z,3.30
2023-03-30T19:57:51.838Z,3.17
2023-03-30T20:00:19.913Z,3.75
2023-03-30T20:02:49.867Z,3.45
2023-03-30T20:05:18.039Z,3.20
2023-03-30T20:07:46.085Z,3.47
2023-03-30T20:10:19.034Z,3.20
2023-03-30T20:12:46.929Z,3.40
2023-03-30T20:15:14.738Z,3.50
2023-03-30T20:17:42.131Z,3.30
2023-03-30T20:20:14.098Z,3.80
2023-03-30T20:22:42.740Z,3.05
2023-03-30T20:25:12.147Z,3.70
2023-03-30T20:27:40.335Z,3.50
2023-03-30T20:30:07.891Z,3.60
2023-03-30T20:32:34.864Z,3.25
2023-03-30T20:35:01.894Z,3.62
2023-03-30T20:37:28.854Z,4.18
2023-03-30T20:40:03.676Z,4.70
2023-03-30T20:42:31.845Z,5.32
2023-03-30T20:44:59.726Z,5.53
2023-03-30T20:47:31.035Z,6.20
2023-03-30T20:49:59.087Z,6.07
2023-03-30T20:52:26.788Z,6.15
2023-03-30T20:54:53.724Z,6.15
2023-03-30T20:57:21.521Z,6.57
2023-03-30T20:59:48.799Z,6.35
2023-03-30T21:02:16.209Z,6.90
2023-03-30T21:04:43.650Z,6.37
2023-03-30T21:07:10.913Z,6.60
2023-03-30T21:09:38.645Z,6.68
2023-03-30T21:12:05.824Z,6.37
2023-03-30T21:14:32.791Z,5.70
2023-03-30T21:16:59.681Z,6.43
2023-03-30T21:19:26.609Z,6.70
2023-03-30T21:21:53.587Z,5.75
2023-03-30T21:24:20.677Z,4.40
2023-03-30T21:26:47.547Z,4.00
2023-03-30T21:29:14.457Z,3.87
2023-03-30T21:31:41.788Z,3.95
2023-03-30T21:34:10.323Z,3.80
2023-03-30T21:36:37.429Z,3.50
2023-03-30T21:39:04.442Z,4.70
2023-03-30T21:41:31.371Z,4.60
2023-03-30T21:43:58.310Z,5.78
2023-03-30T21:46:26.655Z,5.15
2023-03-30T21:48:54.319Z,5.50
2023-03-30T21:51:28.812Z,5.62
2023-03-30T21:53:56.658Z,5.28
2023-03-30T21:56:26.037Z,5.50
2023-03-30T21:58:53.925Z,5.12
2023-03-30T22:01:24.156Z,5.55
2023-03-30T22:03:52.043Z,5.25
2023-03-30T22:06:19.371Z,5.70
2023-03-30T22:08:46.659Z,5.35
2023-03-30T22:11:15.725Z,5.30
2023-03-30T22:13:43.059Z,5.87
2023-03-30T22:16:18.834Z,5.43
2023-03-30T22:18:46.718Z,5.70
2023-03-30T22:21:24.051Z,6.28
2023-03-30T22:26:18.219Z,5.80
2023-03-30T22:28:45.220Z,5.22
2023-03-30T22:31:14.202Z,5.60
2023-03-30T22:33:41.652Z,5.45
2023-03-30T22:36:20.615Z,5.05
2023-03-30T22:38:48.973Z,5.35
2023-03-30T22:41:16.125Z,4.80
2023-03-30T22:43:43.052Z,4.80
2023-03-30T22:46:10.631Z,4.78
2023-03-30T22:48:37.869Z,4.57
2023-03-30T22:51:05.122Z,5.00
2023-03-30T22:53:32.871Z,5.40
2023-03-30T22:56:00.390Z,5.43
2023-03-30T22:58:27.440Z,5.32
2023-03-30T23:01:01.188Z,5.12
2023-03-30T23:03:28.546Z,5.60
2023-03-30T23:05:56.312Z,6.10
2023-03-30T23:08:24.112Z,5.97
2023-03-30T23:10:54.010Z,5.60
2023-03-30T23:13:20.903Z,6.12
2023-03-30T23:15:48.923Z,5.60
2023-03-30T23:18:16.185Z,5.50
2023-03-30T23:20:46.870Z,5.30
2023-03-30T23:23:14.680Z,5.65
2023-03-30T23:25:49.571Z,5.43
2023-03-30T23:28:16.892Z,5.03
2023-03-30T23:30:45.042Z,5.35
2023-03-30T23:33:12.244Z,5.65
2023-03-30T23:35:39.452Z,5.87
2023-03-30T23:38:06.406Z,5.62
2023-03-30T23:40:33.307Z,5.78
2023-03-30T23:43:00.196Z,5.32
2023-03-30T23:45:27.055Z,5.57
2023-03-30T23:47:53.947Z,5.47
2023-03-30T23:50:20.769Z,5.30
2023-03-30T23:52:47.745Z,6.15
2023-03-30T23:55:15.731Z,5.50
2023-03-30T23:57:42.727Z,5.80
